Terminal Aerodrome Forecast
Issued by NWS

Home | Current Version | Previous Version | Text Only | Print | Product List | Glossary On
Versions: 1 2 3 4 5 6 7 8 9 10 11 12 13 14 15 16 17 18 19 20 21 22
000
FTUS43 KGRR 212300
TAFBTL
TAF
KBTL 212332Z 2200/2224 26004KT P6SM SCT020 BKN026
     FM220100 20004KT P6SM SCT025 SCT120 BKN250
     FM220400 16003KT P6SM OVC025
     FM220800 00000KT 4SM BR OVC015
     FM221000 00000KT 2SM BR OVC007
     FM221400 15003KT 4SM BR OVC015
     FM221600 20005KT 5SM HZ BKN050=

USA.gov is the U.S. government's official web portal to all federal, state and local government web resources and services.